Terminal Aerodrome Forecast
Issued by NWS

Home | Current Version | Previous Version | Text Only | Print | Product List | Glossary On
Versions: 1 2 3 4 5 6 7 8 9 10 11 12 13 14 15 16 17 18 19 20 21 22 23 24 25
000
FTUS43 KABR 252000 AAB
TAFATY
TAF AMD
KATY 252049Z 2521/2618 08012KT P6SM OVC015
     FM252300 10014KT P6SM OVC030
     FM260200 11006KT P6SM SCT035
     FM261300 11013KT P6SM FEW050=

USA.gov is the U.S. government's official web portal to all federal, state and local government web resources and services.